This is the latest recevied weather packets stored in our database for station/object CQ0XVC-11. If no packets are shown the sender has not sent any weather packets the latest 10 day(s).
| Time | Temp. | Humidity | Pressure | Rain* | Wind** | Luminosity | Snow |
|---|---|---|---|---|---|---|---|
| 1778086335 | 17.78° C | 30% | 997.6 hPa | 0 mm | - | - | - |
| 1778086034 | 18.33° C | 31% | 997.7 hPa | 0 mm | - | - | - |
| 1778085731 | 18.89° C | 30% | 997.8 hPa | 0 mm | - | - | - |
| 1778085465 | 19.44° C | 28% | 997.5 hPa | 0 mm | - | - | - |
| 1778085430 | 19.44° C | 28% | 997.5 hPa | 0 mm | - | - | - |
| 1778085127 | 19.44° C | 28% | 997.5 hPa | 0 mm | - | - | - |
| 1778084825 | 19.44° C | 28% | 997.6 hPa | 0 mm | - | - | - |
| 1778084522 | 18.89° C | 30% | 997.6 hPa | 0 mm | - | - | - |
| 1778084221 | 18.89° C | 30% | 997.6 hPa | 0 mm | - | - | - |
| 1778083918 | 18.89° C | 30% | 997.7 hPa | 0 mm | - | - | - |
| 1778083647 | 18.89° C | 30% | 997.7 hPa | 0 mm | - | - | - |
| 1778083616 | 18.89° C | 30% | 997.7 hPa | 0 mm | - | - | - |
| 1778083314 | 18.89° C | 31% | 997.6 hPa | 0 mm | - | - | - |
| 1778083043 | 18.89° C | 31% | 997.6 hPa | 0 mm | - | - | - |
| 1778083012 | 18.89° C | 31% | 997.6 hPa | 0 mm | - | - | - |
| 1778082709 | 18.89° C | 32% | 997.8 hPa | 0 mm | - | - | - |
| 1778082440 | 18.33° C | 32% | 997.7 hPa | 0 mm | - | - | - |
| 1778082408 | 18.33° C | 32% | 997.7 hPa | 0 mm | - | - | - |
| 1778082144 | 18.89° C | 27% | 997.8 hPa | 0 mm | - | - | - |
| 1778082105 | 18.89° C | 27% | 997.8 hPa | 0 mm | - | - | - |
| 1778081803 | 19.44° C | 26% | 997.7 hPa | 0 mm | - | - | - |
| 1778081501 | 20° C | 26% | 997.7 hPa | 0 mm | - | - | - |
| 1778081231 | 20° C | 26% | 997.7 hPa | 0 mm | - | - | - |
| 1778081199 | 20° C | 26% | 997.7 hPa | 0 mm | - | - | - |
| 1778080896 | 20° C | 27% | 997.8 hPa | 0 mm | - | - | - |
* Rain since midnight (hover to see other rain measurements)
** Current wind speed in m/s (hover to see current wind gust speed)